Time;durP1;ratioP1;P1;durP2;ratioP2;P2;SDS_P1;SDS_P2;PMS_P1;PMS_P2;Temp;Humidity;BMP_temperature;BMP_pressure;BME280_temperature;BME280_humidity;BME280_pressure;Samples;Min_cycle;Max_cycle;Signal;HPM_P1;HPM_P2
2023/02/16 00:00:41;;;;;;;;;11.75;7.75;;;;;;;;117894;1182;25561;-60
2023/02/16 00:03:29;;;;;;;;;12.00;11.67;;;;;;;;117836;1177;25611;-60
2023/02/16 00:05:57;;;;;;;;;13.25;11.00;;;;;;;;117880;1190;24875;-60
2023/02/16 00:08:26;;;;;;;;;10.00;10.00;;;;;;;;117868;1177;25677;-60
2023/02/16 00:13:46;;;;;;;;;11.67;9.67;;;;;;;;117963;1183;26462;-60
2023/02/16 00:16:20;;;;;;;;;12.25;10.25;;;;;;;;117945;1190;25194;-60
2023/02/16 00:18:49;;;;;;;;;8.67;7.67;;;;;;;;117953;1183;24893;-60
2023/02/16 00:21:17;;;;;;;;;13.33;9.33;;;;;;;;117951;1177;25646;-60
2023/02/16 00:23:47;;;;;;;;;9.67;8.33;;;;;;;;117910;1177;25335;-60
2023/02/16 00:26:21;;;;;;;;;11.50;9.00;;;;;;;;117938;1177;25485;-61
2023/02/16 00:28:54;;;;;;;;;8.50;8.50;;;;;;;;117930;1177;25401;-60
2023/02/16 00:31:27;;;;;;;;;9.00;6.67;;;;;;;;117944;1178;24769;-60
2023/02/16 00:33:57;;;;;;;;;10.00;8.00;;;;;;;;117976;1186;25612;-60
2023/02/16 00:36:25;;;;;;;;;12.00;9.00;;;;;;;;117951;1183;25615;-60
2023/02/16 00:38:54;;;;;;;;;12.33;10.00;;;;;;;;117892;1177;25084;-60
2023/02/16 00:44:28;;;;;;;;;10.50;9.00;;;;;;;;117947;1190;26004;-60
2023/02/16 00:47:10;;;;;;;;;11.00;10.00;;;;;;;;117959;1180;25399;-60
2023/02/16 00:49:38;;;;;;;;;11.00;7.50;;;;;;;;117943;1183;24670;-60
2023/02/16 00:52:32;;;;;;;;;10.50;9.00;;;;;;;;117976;1178;25329;-61
2023/02/16 00:55:03;;;;;;;;;10.00;8.25;;;;;;;;117950;1178;25628;-60
2023/02/16 00:57:39;;;;;;;;;10.00;10.00;;;;;;;;117919;1177;24846;-60
2023/02/16 01:00:11;;;;;;;;;12.50;11.00;;;;;;;;117947;1184;25317;-60
2023/02/16 01:02:42;;;;;;;;;12.33;9.67;;;;;;;;117960;1184;25342;-60
2023/02/16 01:05:11;;;;;;;;;8.00;8.00;;;;;;;;117945;1177;25456;-60
2023/02/16 01:13:31;;;;;;;;;8.67;8.67;;;;;;;;117776;1177;24708;-60
2023/02/16 01:15:59;;;;;;;;;9.25;6.25;;;;;;;;117911;1187;25088;-60
2023/02/16 01:18:28;;;;;;;;;8.00;7.67;;;;;;;;117911;1190;25675;-60
2023/02/16 01:20:56;;;;;;;;;11.67;9.33;;;;;;;;117950;1187;24793;-60
2023/02/16 01:23:25;;;;;;;;;10.33;9.67;;;;;;;;117954;1177;25808;-60
2023/02/16 01:25:53;;;;;;;;;10.50;8.00;;;;;;;;117929;1179;25016;-60
2023/02/16 01:28:24;;;;;;;;;11.00;7.67;;;;;;;;117941;1184;24962;-60
2023/02/16 01:30:52;;;;;;;;;10.00;9.00;;;;;;;;117940;1177;24979;-60
2023/02/16 01:33:22;;;;;;;;;9.50;7.00;;;;;;;;117847;1180;25631;-60
2023/02/16 01:35:53;;;;;;;;;10.33;10.33;;;;;;;;117871;1177;25058;-62
2023/02/16 01:38:24;;;;;;;;;11.67;8.67;;;;;;;;117940;1186;25271;-61
2023/02/16 01:41:04;;;;;;;;;6.00;5.50;;;;;;;;117980;1178;25533;-58
2023/02/16 01:43:47;;;;;;;;;11.00;8.00;;;;;;;;117838;1187;25156;-59
2023/02/16 01:46:38;;;;;;;;;6.50;6.50;;;;;;;;117865;1178;24920;-60
2023/02/16 01:49:12;;;;;;;;;12.67;7.00;;;;;;;;117920;1177;24713;-60
2023/02/16 01:52:08;;;;;;;;;11.00;9.33;;;;;;;;117896;1182;24720;-60
2023/02/16 01:54:50;;;;;;;;;8.33;7.00;;;;;;;;117847;1180;25067;-58
2023/02/16 01:58:01;;;;;;;;;7.00;7.00;;;;;;;;117955;1191;25612;-60
2023/02/16 02:00:53;;;;;;;;;11.00;9.00;;;;;;;;117411;1194;25119;-60
2023/02/16 02:06:18;;;;;;;;;9.00;7.00;;;;;;;;117827;1180;25249;-60
2023/02/16 02:08:56;;;;;;;;;7.00;7.00;;;;;;;;117911;1177;25066;-60
2023/02/16 02:11:33;;;;;;;;;5.00;4.00;;;;;;;;117944;1180;24909;-60
2023/02/16 02:14:08;;;;;;;;;12.00;8.00;;;;;;;;117945;1191;26223;-60
2023/02/16 02:16:37;;;;;;;;;8.67;7.00;;;;;;;;117969;1180;25195;-60
2023/02/16 02:19:05;;;;;;;;;6.00;6.00;;;;;;;;117942;1191;24928;-60
2023/02/16 02:24:54;;;;;;;;;10.67;7.00;;;;;;;;117943;1190;25393;-60
2023/02/16 02:27:32;;;;;;;;;9.00;8.50;;;;;;;;117934;1190;25430;-60
2023/02/16 02:30:00;;;;;;;;;7.00;7.00;;;;;;;;117966;1190;25090;-60
2023/02/16 02:33:27;;;;;;;;;7.00;7.00;;;;;;;;117919;1190;25349;-60
2023/02/16 02:36:23;;;;;;;;;6.50;6.50;;;;;;;;117313;1187;25351;-59
2023/02/16 02:38:54;;;;;;;;;9.00;6.00;;;;;;;;117927;1183;25045;-60
2023/02/16 02:42:02;;;;;;;;;8.25;6.50;;;;;;;;117898;1177;25029;-60
2023/02/16 02:44:20;;;;;;;;;6.50;6.50;;;;;;;;117945;1187;25502;-60
2023/02/16 02:46:48;;;;;;;;;6.67;6.67;;;;;;;;117959;1191;25501;-60
2023/02/16 02:49:17;;;;;;;;;6.33;6.00;;;;;;;;117936;1178;24812;-59
2023/02/16 02:51:46;;;;;;;;;8.50;6.75;;;;;;;;117928;1178;25140;-60
2023/02/16 03:03:16;;;;;;;;;12.50;7.25;;;;;;;;118637;1183;25566;-60
2023/02/16 03:05:50;;;;;;;;;6.75;6.00;;;;;;;;117904;1191;24744;-60
2023/02/16 03:08:23;;;;;;;;;2.75;1.50;;;;;;;;117945;1188;24941;-59
2023/02/16 03:14:08;;;;;;;;;6.00;6.00;;;;;;;;117961;1190;25172;-61
2023/02/16 03:16:46;;;;;;;;;5.50;4.00;;;;;;;;117974;1190;24782;-60
2023/02/16 03:30:29;;;;;;;;;5.00;5.00;;;;;;;;117869;1177;24964;-60
2023/02/16 03:32:57;;;;;;;;;7.50;7.00;;;;;;;;117909;1187;24831;-60
2023/02/16 03:35:26;;;;;;;;;5.00;5.00;;;;;;;;117958;1180;24683;-60
2023/02/16 03:37:54;;;;;;;;;7.50;5.50;;;;;;;;117961;1190;25901;-60
2023/02/16 03:40:28;;;;;;;;;9.00;7.50;;;;;;;;117983;1177;25621;-60
2023/02/16 03:43:00;;;;;;;;;8.50;6.00;;;;;;;;117898;1177;25704;-60
2023/02/16 03:45:30;;;;;;;;;6.67;6.67;;;;;;;;117935;1177;25646;-60
2023/02/16 03:47:58;;;;;;;;;9.67;7.33;;;;;;;;117898;1177;25437;-60
2023/02/16 03:50:27;;;;;;;;;6.50;6.50;;;;;;;;117908;1181;25523;-60
2023/02/16 03:53:05;;;;;;;;;8.00;5.50;;;;;;;;117858;1180;25669;-60
2023/02/16 03:55:36;;;;;;;;;6.00;5.00;;;;;;;;117859;1181;25350;-60
2023/02/16 03:58:06;;;;;;;;;4.33;4.00;;;;;;;;117910;1190;25593;-60
2023/02/16 04:00:35;;;;;;;;;10.33;6.33;;;;;;;;117931;1177;24892;-60
2023/02/16 04:03:05;;;;;;;;;5.75;3.75;;;;;;;;117914;1179;25387;-60
2023/02/16 04:05:33;;;;;;;;;6.00;5.67;;;;;;;;117776;1177;25805;-61
2023/02/16 04:08:02;;;;;;;;;8.00;8.00;;;;;;;;117825;1179;25563;-60
2023/02/16 04:10:31;;;;;;;;;5.00;4.00;;;;;;;;117947;1177;26107;-60
2023/02/16 04:13:00;;;;;;;;;5.00;5.00;;;;;;;;117941;1191;25292;-60
2023/02/16 04:15:29;;;;;;;;;8.50;6.50;;;;;;;;117947;1177;25318;-60
2023/02/16 04:17:57;;;;;;;;;7.50;7.50;;;;;;;;117971;1179;25698;-60
2023/02/16 04:20:28;;;;;;;;;8.50;7.00;;;;;;;;117904;1180;25563;-60
2023/02/16 04:22:57;;;;;;;;;6.00;6.00;;;;;;;;117955;1177;24995;-61
2023/02/16 04:25:26;;;;;;;;;8.00;6.50;;;;;;;;117886;1179;25365;-60
2023/02/16 04:27:54;;;;;;;;;4.67;4.00;;;;;;;;117849;1178;24941;-60
2023/02/16 04:30:26;;;;;;;;;6.25;6.00;;;;;;;;117954;1178;24926;-61
2023/02/16 04:32:55;;;;;;;;;5.67;5.33;;;;;;;;117921;1190;25184;-60
2023/02/16 04:35:23;;;;;;;;;8.67;5.33;;;;;;;;117975;1190;25592;-60
2023/02/16 04:37:52;;;;;;;;;9.50;8.75;;;;;;;;117905;1184;25233;-61
2023/02/16 04:40:21;;;;;;;;;7.75;7.75;;;;;;;;117901;1184;25255;-60
2023/02/16 04:42:49;;;;;;;;;7.00;7.00;;;;;;;;117929;1183;25165;-61
2023/02/16 04:45:18;;;;;;;;;7.50;6.25;;;;;;;;117874;1190;24770;-60
2023/02/16 04:47:46;;;;;;;;;9.75;6.75;;;;;;;;117945;1177;25264;-60
2023/02/16 04:50:15;;;;;;;;;8.50;7.00;;;;;;;;117958;1177;24768;-59
2023/02/16 04:52:43;;;;;;;;;6.00;6.00;;;;;;;;117923;1177;25438;-60
2023/02/16 04:55:11;;;;;;;;;9.00;6.33;;;;;;;;117881;1177;24766;-60
2023/02/16 04:57:40;;;;;;;;;6.00;5.50;;;;;;;;117855;1178;25941;-60
2023/02/16 05:00:13;;;;;;;;;7.00;7.00;;;;;;;;117853;1190;24755;-59
2023/02/16 05:02:41;;;;;;;;;5.25;5.25;;;;;;;;117890;1190;25707;-60
2023/02/16 05:05:10;;;;;;;;;5.00;5.00;;;;;;;;117881;1177;25664;-60
2023/02/16 05:07:38;;;;;;;;;8.25;8.00;;;;;;;;117911;1177;24766;-60
2023/02/16 05:10:08;;;;;;;;;7.50;6.00;;;;;;;;117941;1179;24882;-60
2023/02/16 05:15:23;;;;;;;;;6.67;6.67;;;;;;;;117900;1177;25205;-61
2023/02/16 05:17:52;;;;;;;;;5.67;5.00;;;;;;;;117967;1177;25021;-60
2023/02/16 05:21:28;;;;;;;;;7.50;7.50;;;;;;;;117881;1180;25438;-60
2023/02/16 05:23:08;;;;;;;;;6.75;6.75;;;;;;;;117910;1177;25106;-62
2023/02/16 05:25:37;;;;;;;;;7.00;6.00;;;;;;;;117880;1178;25072;-62
2023/02/16 05:28:05;;;;;;;;;10.33;7.00;;;;;;;;117938;1178;25304;-61
2023/02/16 05:30:34;;;;;;;;;6.00;6.00;;;;;;;;117919;1183;25616;-60
2023/02/16 05:33:02;;;;;;;;;8.50;6.75;;;;;;;;117881;1177;26081;-60
2023/02/16 05:35:33;;;;;;;;;9.00;7.33;;;;;;;;117850;1177;25518;-59
2023/02/16 05:38:01;;;;;;;;;7.00;6.00;;;;;;;;117962;1184;25180;-60
2023/02/16 05:40:30;;;;;;;;;10.00;6.25;;;;;;;;117940;1190;26259;-60
2023/02/16 05:42:58;;;;;;;;;7.25;6.00;;;;;;;;117916;1183;24912;-60
2023/02/16 05:45:27;;;;;;;;;7.25;6.00;;;;;;;;117956;1187;25642;-60
2023/02/16 05:47:55;;;;;;;;;8.75;7.00;;;;;;;;117938;1179;24886;-60
2023/02/16 05:50:24;;;;;;;;;9.67;7.67;;;;;;;;117974;1177;25370;-59
2023/02/16 05:52:52;;;;;;;;;11.00;11.00;;;;;;;;117928;1177;27100;-59
2023/02/16 05:55:20;;;;;;;;;7.00;5.00;;;;;;;;117939;1178;25385;-59
2023/02/16 05:57:49;;;;;;;;;8.50;7.00;;;;;;;;117928;1178;24909;-59
2023/02/16 06:00:18;;;;;;;;;7.25;7.00;;;;;;;;117869;1178;25357;-60
2023/02/16 06:02:46;;;;;;;;;8.00;8.00;;;;;;;;117950;1186;24951;-60
2023/02/16 06:05:15;;;;;;;;;6.25;6.25;;;;;;;;117936;1179;25648;-61
2023/02/16 06:07:44;;;;;;;;;9.67;6.00;;;;;;;;117893;1179;25435;-60
2023/02/16 06:10:15;;;;;;;;;6.00;6.00;;;;;;;;117896;1190;25534;-60
2023/02/16 06:12:44;;;;;;;;;6.25;5.75;;;;;;;;117947;1180;24929;-59
2023/02/16 06:15:12;;;;;;;;;8.00;7.33;;;;;;;;117998;1185;25506;-59
2023/02/16 06:17:43;;;;;;;;;7.00;6.00;;;;;;;;117944;1180;25266;-59
2023/02/16 06:20:12;;;;;;;;;7.00;5.33;;;;;;;;117930;1180;25568;-59
2023/02/16 06:22:40;;;;;;;;;7.00;7.00;;;;;;;;117957;1190;24946;-59
2023/02/16 06:25:09;;;;;;;;;6.00;5.00;;;;;;;;117930;1190;25172;-59
2023/02/16 06:27:37;;;;;;;;;5.00;3.00;;;;;;;;117954;1180;25605;-59
2023/02/16 06:30:07;;;;;;;;;7.00;7.00;;;;;;;;117944;1190;25649;-59
2023/02/16 06:32:36;;;;;;;;;8.00;6.25;;;;;;;;117977;1177;25044;-59
2023/02/16 06:35:05;;;;;;;;;9.33;8.00;;;;;;;;117964;1177;25615;-60
2023/02/16 06:37:33;;;;;;;;;7.00;6.00;;;;;;;;117938;1190;24971;-59
2023/02/16 06:40:02;;;;;;;;;8.33;6.67;;;;;;;;117880;1177;25540;-59
2023/02/16 06:42:30;;;;;;;;;5.67;5.67;;;;;;;;117874;1190;24892;-59
2023/02/16 06:44:59;;;;;;;;;5.67;5.33;;;;;;;;117857;1190;24787;-59
2023/02/16 06:47:27;;;;;;;;;10.00;8.00;;;;;;;;117956;1179;25578;-59
2023/02/16 06:49:56;;;;;;;;;13.75;10.00;;;;;;;;117930;1190;26927;-60
2023/02/16 06:52:25;;;;;;;;;8.50;7.00;;;;;;;;117950;1190;25070;-59
2023/02/16 06:54:53;;;;;;;;;8.00;7.33;;;;;;;;117978;1177;25208;-59
2023/02/16 06:57:22;;;;;;;;;6.75;6.75;;;;;;;;117920;1190;24911;-59
2023/02/16 06:59:50;;;;;;;;;10.67;8.33;;;;;;;;117903;1189;25255;-59
2023/02/16 07:02:19;;;;;;;;;6.50;5.50;;;;;;;;117916;1178;25421;-59
2023/02/16 07:04:47;;;;;;;;;9.25;8.00;;;;;;;;117943;1188;25006;-59
2023/02/16 07:07:16;;;;;;;;;9.00;8.00;;;;;;;;117953;1182;25683;-59
2023/02/16 07:09:44;;;;;;;;;9.00;9.00;;;;;;;;117963;1190;25053;-59
2023/02/16 07:12:13;;;;;;;;;9.00;8.33;;;;;;;;117900;1177;25557;-59
2023/02/16 07:14:42;;;;;;;;;10.67;10.67;;;;;;;;117948;1180;25446;-59
2023/02/16 07:17:11;;;;;;;;;11.75;7.50;;;;;;;;117884;1180;25603;-59
2023/02/16 07:19:40;;;;;;;;;7.50;7.50;;;;;;;;117945;1190;24857;-60
2023/02/16 07:22:08;;;;;;;;;7.33;7.00;;;;;;;;117939;1177;24990;-59
2023/02/16 07:24:37;;;;;;;;;11.25;10.50;;;;;;;;117923;1178;25011;-59
2023/02/16 07:27:07;;;;;;;;;10.00;10.00;;;;;;;;117902;1177;25507;-59
2023/02/16 07:29:36;;;;;;;;;7.00;7.00;;;;;;;;117898;1190;25263;-59
2023/02/16 07:32:04;;;;;;;;;10.25;8.75;;;;;;;;117933;1178;25348;-59
2023/02/16 07:34:33;;;;;;;;;12.67;10.33;;;;;;;;117929;1190;25242;-60
2023/02/16 07:37:01;;;;;;;;;12.67;11.00;;;;;;;;117842;1190;25625;-60
2023/02/16 07:39:30;;;;;;;;;6.00;4.75;;;;;;;;117899;1177;25543;-60
2023/02/16 07:41:59;;;;;;;;;11.00;10.00;;;;;;;;117892;1180;25224;-60
2023/02/16 07:44:28;;;;;;;;;12.67;10.33;;;;;;;;117963;1177;25027;-61
2023/02/16 07:46:56;;;;;;;;;17.00;11.67;;;;;;;;117995;1178;25825;-60
2023/02/16 07:49:25;;;;;;;;;12.00;12.00;;;;;;;;117941;1176;24828;-60
2023/02/16 07:51:53;;;;;;;;;12.00;11.00;;;;;;;;117911;1180;25342;-60
2023/02/16 07:54:21;;;;;;;;;12.25;12.00;;;;;;;;117963;1178;24816;-66
2023/02/16 07:56:50;;;;;;;;;15.33;12.33;;;;;;;;117959;1190;25559;-64
2023/02/16 07:59:19;;;;;;;;;11.33;11.00;;;;;;;;117878;1177;25227;-69
2023/02/16 08:01:47;;;;;;;;;12.25;11.75;;;;;;;;117947;1180;25212;-69
2023/02/16 08:04:16;;;;;;;;;13.50;13.50;;;;;;;;117933;1177;24928;-63
2023/02/16 08:06:47;;;;;;;;;13.33;12.67;;;;;;;;117952;1190;25624;-68
2023/02/16 08:09:15;;;;;;;;;13.67;11.00;;;;;;;;117853;1177;25525;-60
2023/02/16 08:11:44;;;;;;;;;12.00;12.00;;;;;;;;117815;1178;25662;-68
2023/02/16 08:14:14;;;;;;;;;14.67;12.00;;;;;;;;117834;1178;25750;-61
2023/02/16 08:16:43;;;;;;;;;17.50;13.50;;;;;;;;117933;1180;24822;-61
2023/02/16 08:19:12;;;;;;;;;13.00;12.25;;;;;;;;117912;1177;25127;-61
2023/02/16 08:21:41;;;;;;;;;11.33;9.33;;;;;;;;117945;1177;26220;-61
2023/02/16 08:24:12;;;;;;;;;12.00;12.00;;;;;;;;117877;1182;25198;-61
2023/02/16 08:26:42;;;;;;;;;16.50;13.00;;;;;;;;117902;1178;25021;-61
2023/02/16 08:29:12;;;;;;;;;12.50;11.25;;;;;;;;117921;1178;25387;-60
2023/02/16 08:31:40;;;;;;;;;10.00;10.00;;;;;;;;117946;1177;24968;-61
2023/02/16 08:34:09;;;;;;;;;15.67;14.67;;;;;;;;117932;1190;25005;-60
2023/02/16 08:36:40;;;;;;;;;15.00;14.00;;;;;;;;117939;1177;25049;-60
2023/02/16 08:39:13;;;;;;;;;9.50;6.00;;;;;;;;117875;1177;24867;-60
2023/02/16 08:41:43;;;;;;;;;12.67;11.33;;;;;;;;117883;1177;25096;-60
2023/02/16 08:44:14;;;;;;;;;18.33;13.00;;;;;;;;117883;1181;25201;-59
2023/02/16 08:46:44;;;;;;;;;14.25;12.00;;;;;;;;117915;1179;25102;-60
2023/02/16 08:49:15;;;;;;;;;13.50;12.50;;;;;;;;117963;1177;25339;-59
2023/02/16 08:51:47;;;;;;;;;14.33;10.33;;;;;;;;117918;1181;25558;-60
2023/02/16 08:54:18;;;;;;;;;11.00;11.00;;;;;;;;117939;1177;25051;-60
2023/02/16 08:56:48;;;;;;;;;10.00;8.00;;;;;;;;117926;1181;25516;-60
2023/02/16 08:59:18;;;;;;;;;11.67;9.00;;;;;;;;117893;1179;25108;-60
2023/02/16 09:01:46;;;;;;;;;16.00;10.00;;;;;;;;117947;1177;25059;-60
2023/02/16 09:04:17;;;;;;;;;10.00;10.00;;;;;;;;117965;1190;25346;-60
2023/02/16 09:06:49;;;;;;;;;10.50;10.00;;;;;;;;117852;1178;24738;-62
2023/02/16 09:09:18;;;;;;;;;11.50;10.75;;;;;;;;117893;1177;25229;-63
2023/02/16 09:11:46;;;;;;;;;14.00;12.25;;;;;;;;117919;1190;25491;-64
2023/02/16 09:14:18;;;;;;;;;13.00;12.00;;;;;;;;117807;1187;24958;-60
2023/02/16 09:16:46;;;;;;;;;14.75;13.75;;;;;;;;117795;1178;25169;-66
2023/02/16 09:19:18;;;;;;;;;16.00;11.50;;;;;;;;117997;1181;25542;-58
2023/02/16 09:21:49;;;;;;;;;13.33;12.00;;;;;;;;117884;1177;25306;-58
2023/02/16 09:24:18;;;;;;;;;10.25;9.75;;;;;;;;117823;1181;25648;-59
2023/02/16 09:26:46;;;;;;;;;10.67;10.00;;;;;;;;118062;1178;24981;-60
2023/02/16 09:29:15;;;;;;;;;10.00;8.50;;;;;;;;118039;1177;25508;-59
2023/02/16 09:31:44;;;;;;;;;8.25;6.25;;;;;;;;117811;1178;25067;-59
2023/02/16 09:34:19;;;;;;;;;8.50;7.00;;;;;;;;117904;1183;25949;-59
2023/02/16 09:36:48;;;;;;;;;12.00;9.50;;;;;;;;117883;1179;25378;-59
2023/02/16 09:39:17;;;;;;;;;10.50;10.50;;;;;;;;117923;1183;24823;-62
2023/02/16 09:42:01;;;;;;;;;8.25;7.50;;;;;;;;117825;1177;24874;-62
2023/02/16 09:44:44;;;;;;;;;7.00;6.67;;;;;;;;117860;1177;25514;-60
2023/02/16 09:47:28;;;;;;;;;7.00;6.50;;;;;;;;117976;1189;25150;-60
2023/02/16 09:49:58;;;;;;;;;9.67;7.67;;;;;;;;117897;1177;25473;-60
2023/02/16 09:53:02;;;;;;;;;11.00;8.00;;;;;;;;117870;1179;25394;-59
2023/02/16 09:55:50;;;;;;;;;10.50;7.75;;;;;;;;117473;1180;24913;-60
2023/02/16 09:58:22;;;;;;;;;9.00;7.00;;;;;;;;117874;1177;25500;-60
2023/02/16 10:00:55;;;;;;;;;9.00;6.75;;;;;;;;117846;1191;25470;-61
2023/02/16 10:03:45;;;;;;;;;8.00;6.00;;;;;;;;117863;1182;25389;-61
2023/02/16 10:06:35;;;;;;;;;8.50;5.50;;;;;;;;117910;1180;25460;-61
2023/02/16 10:09:07;;;;;;;;;11.00;8.00;;;;;;;;117912;1185;25460;-60
2023/02/16 10:11:46;;;;;;;;;5.50;3.00;;;;;;;;118042;1177;24913;-60
2023/02/16 10:14:42;;;;;;;;;10.50;7.00;;;;;;;;117904;1177;25238;-61
2023/02/16 10:17:28;;;;;;;;;10.00;7.25;;;;;;;;117871;1182;24900;-61
2023/02/16 10:20:15;;;;;;;;;11.00;7.00;;;;;;;;117917;1179;25439;-60
2023/02/16 10:23:05;;;;;;;;;8.67;7.33;;;;;;;;117922;1177;24942;-61
2023/02/16 10:25:45;;;;;;;;;7.33;7.00;;;;;;;;118035;1189;24852;-60
2023/02/16 10:28:28;;;;;;;;;9.33;7.67;;;;;;;;117876;1177;24907;-60
2023/02/16 10:31:04;;;;;;;;;12.00;9.33;;;;;;;;117855;1179;25611;-61
2023/02/16 10:33:43;;;;;;;;;6.00;4.50;;;;;;;;117879;1181;24710;-61
2023/02/16 10:36:41;;;;;;;;;14.00;8.00;;;;;;;;117873;1177;25398;-61
2023/02/16 10:39:26;;;;;;;;;8.75;8.50;;;;;;;;117839;1177;25451;-60
2023/02/16 10:42:28;;;;;;;;;11.00;10.00;;;;;;;;117895;1189;25461;-60
2023/02/16 10:45:18;;;;;;;;;10.67;9.00;;;;;;;;117909;1177;24969;-60
2023/02/16 10:47:47;;;;;;;;;14.75;8.25;;;;;;;;117898;1189;25572;-61
2023/02/16 10:50:36;;;;;;;;;12.50;10.00;;;;;;;;117979;1190;25368;-61
2023/02/16 10:53:16;;;;;;;;;11.50;10.50;;;;;;;;117909;1187;25157;-61
2023/02/16 10:55:45;;;;;;;;;11.33;8.67;;;;;;;;117811;1187;25237;-60
2023/02/16 10:58:38;;;;;;;;;11.75;9.75;;;;;;;;117933;1190;24844;-61
2023/02/16 11:01:15;;;;;;;;;9.50;7.00;;;;;;;;117830;1190;25610;-60
2023/02/16 11:03:46;;;;;;;;;11.33;7.00;;;;;;;;117897;1182;24802;-60
2023/02/16 11:06:18;;;;;;;;;15.00;10.00;;;;;;;;117955;1188;25314;-61
2023/02/16 11:08:49;;;;;;;;;18.33;11.33;;;;;;;;117914;1178;25583;-60
2023/02/16 11:11:18;;;;;;;;;12.67;7.33;;;;;;;;117893;1177;25379;-57
2023/02/16 11:13:47;;;;;;;;;13.67;10.00;;;;;;;;117725;1190;24915;-57
2023/02/16 11:16:21;;;;;;;;;10.00;8.00;;;;;;;;117885;1190;25620;-57
2023/02/16 11:19:04;;;;;;;;;14.67;9.33;;;;;;;;117828;1178;25158;-58
2023/02/16 11:21:54;;;;;;;;;12.50;10.50;;;;;;;;117912;1182;25288;-56
2023/02/16 11:24:31;;;;;;;;;9.75;7.50;;;;;;;;118112;1189;24716;-58
2023/02/16 11:27:19;;;;;;;;;14.75;10.75;;;;;;;;117836;1190;25824;-58
2023/02/16 11:29:48;;;;;;;;;10.75;10.25;;;;;;;;117847;1179;25198;-59
2023/02/16 11:32:18;;;;;;;;;15.25;9.25;;;;;;;;117925;1189;24879;-58
2023/02/16 11:34:48;;;;;;;;;11.00;9.50;;;;;;;;117962;1178;24910;-58
2023/02/16 11:37:27;;;;;;;;;12.00;12.00;;;;;;;;117877;1180;25054;-55
2023/02/16 11:40:06;;;;;;;;;11.00;9.33;;;;;;;;117893;1177;25332;-58
2023/02/16 11:42:39;;;;;;;;;8.75;8.75;;;;;;;;118048;1189;25196;-59
2023/02/16 11:45:22;;;;;;;;;9.00;8.00;;;;;;;;118003;1189;25658;-58
2023/02/16 11:48:25;;;;;;;;;9.00;8.33;;;;;;;;117890;1183;24859;-59
2023/02/16 11:51:07;;;;;;;;;11.50;9.00;;;;;;;;117800;1183;25476;-55
2023/02/16 11:53:39;;;;;;;;;8.67;8.00;;;;;;;;118066;1187;25254;-57
2023/02/16 11:56:27;;;;;;;;;13.67;11.33;;;;;;;;117898;1189;25520;-57
2023/02/16 11:59:11;;;;;;;;;7.75;7.75;;;;;;;;117880;1177;25876;-58
2023/02/16 12:02:02;;;;;;;;;11.50;10.75;;;;;;;;117882;1187;26012;-57
2023/02/16 12:04:42;;;;;;;;;11.00;9.00;;;;;;;;117895;1177;24814;-56
2023/02/16 12:07:19;;;;;;;;;10.75;8.00;;;;;;;;117902;1186;25238;-58
2023/02/16 12:09:59;;;;;;;;;6.00;6.00;;;;;;;;117848;1190;25991;-58
2023/02/16 12:13:02;;;;;;;;;13.00;9.50;;;;;;;;117868;1178;25396;-56
2023/02/16 12:16:16;;;;;;;;;10.67;9.67;;;;;;;;117875;1190;25391;-57
2023/02/16 12:19:22;;;;;;;;;14.00;10.75;;;;;;;;117506;1191;25552;-56
2023/02/16 12:21:56;;;;;;;;;11.00;9.00;;;;;;;;117895;1190;25219;-56
2023/02/16 12:25:01;;;;;;;;;10.75;8.75;;;;;;;;117890;1187;24896;-57
2023/02/16 12:27:39;;;;;;;;;8.50;8.00;;;;;;;;117944;1178;25093;-57
2023/02/16 12:30:10;;;;;;;;;12.50;11.00;;;;;;;;117923;1177;24925;-57
2023/02/16 12:33:11;;;;;;;;;19.00;10.00;;;;;;;;117840;1184;25299;-58
2023/02/16 12:36:06;;;;;;;;;13.25;8.75;;;;;;;;117826;1177;24866;-58
2023/02/16 12:38:50;;;;;;;;;12.00;10.00;;;;;;;;117814;1181;25252;-58
2023/02/16 12:41:40;;;;;;;;;10.75;8.25;;;;;;;;117826;1179;25579;-57
2023/02/16 12:44:18;;;;;;;;;14.33;10.00;;;;;;;;117784;1190;24857;-57
2023/02/16 12:46:52;;;;;;;;;12.00;9.00;;;;;;;;117928;1190;25342;-57
2023/02/16 12:49:26;;;;;;;;;12.50;8.00;;;;;;;;117816;1180;24951;-59
2023/02/16 12:52:30;;;;;;;;;12.33;10.33;;;;;;;;117811;1179;25536;-60
2023/02/16 12:55:07;;;;;;;;;15.00;7.75;;;;;;;;117696;1187;25052;-61
2023/02/16 12:57:35;;;;;;;;;11.50;7.50;;;;;;;;117879;1181;25275;-59
2023/02/16 13:00:25;;;;;;;;;10.67;7.67;;;;;;;;117862;1179;24944;-58
2023/02/16 13:03:12;;;;;;;;;11.75;9.50;;;;;;;;117834;1178;25247;-59
2023/02/16 13:05:41;;;;;;;;;14.00;10.00;;;;;;;;117841;1191;25143;-57
2023/02/16 13:08:29;;;;;;;;;12.67;10.33;;;;;;;;117861;1178;25033;-57
2023/02/16 13:11:42;;;;;;;;;11.50;10.00;;;;;;;;117901;1178;25201;-57
2023/02/16 13:14:16;;;;;;;;;13.50;10.00;;;;;;;;117849;1187;25506;-57
2023/02/16 13:16:55;;;;;;;;;13.67;10.33;;;;;;;;117850;1191;25026;-57
2023/02/16 13:19:24;;;;;;;;;10.50;9.00;;;;;;;;117907;1190;25116;-60
2023/02/16 13:21:53;;;;;;;;;11.67;7.33;;;;;;;;117857;1177;25425;-59
2023/02/16 13:24:44;;;;;;;;;10.50;8.50;;;;;;;;117842;1190;25510;-60
2023/02/16 13:27:46;;;;;;;;;11.00;9.00;;;;;;;;117870;1179;25594;-56
2023/02/16 13:30:39;;;;;;;;;13.00;10.00;;;;;;;;117885;1180;24836;-55
2023/02/16 13:33:08;;;;;;;;;14.67;9.00;;;;;;;;117935;1183;25545;-56
2023/02/16 13:35:51;;;;;;;;;9.25;7.50;;;;;;;;117868;1191;24915;-56
2023/02/16 13:38:33;;;;;;;;;10.75;8.75;;;;;;;;117881;1183;25130;-57
2023/02/16 13:41:23;;;;;;;;;15.67;11.00;;;;;;;;117921;1180;25681;-56
2023/02/16 13:43:52;;;;;;;;;11.00;7.67;;;;;;;;117774;1179;25664;-57
2023/02/16 13:46:27;;;;;;;;;14.00;10.00;;;;;;;;117849;1178;25213;-57
2023/02/16 13:48:56;;;;;;;;;15.00;9.00;;;;;;;;117938;1179;24984;-57
2023/02/16 13:51:29;;;;;;;;;15.33;11.67;;;;;;;;117858;1180;25152;-58
2023/02/16 13:54:00;;;;;;;;;12.00;9.50;;;;;;;;117898;1181;25228;-58
2023/02/16 13:56:28;;;;;;;;;19.00;13.00;;;;;;;;117843;1190;25392;-56
2023/02/16 13:58:59;;;;;;;;;15.25;9.00;;;;;;;;117872;1190;24887;-59
2023/02/16 14:01:31;;;;;;;;;15.67;14.00;;;;;;;;117876;1191;24751;-59
2023/02/16 14:04:00;;;;;;;;;12.50;11.75;;;;;;;;117852;1180;25227;-59
2023/02/16 14:06:33;;;;;;;;;14.00;12.00;;;;;;;;117914;1190;25573;-57
2023/02/16 14:09:13;;;;;;;;;11.75;11.00;;;;;;;;117767;1190;25272;-58
2023/02/16 14:11:58;;;;;;;;;12.00;10.67;;;;;;;;118037;1179;24994;-57
2023/02/16 14:14:30;;;;;;;;;12.00;9.25;;;;;;;;117851;1179;25330;-58
2023/02/16 14:17:16;;;;;;;;;16.00;10.00;;;;;;;;117818;1181;25560;-58
2023/02/16 14:19:52;;;;;;;;;16.75;11.75;;;;;;;;117908;1182;25439;-59
2023/02/16 14:22:38;;;;;;;;;16.67;11.33;;;;;;;;117990;1179;25051;-58
2023/02/16 14:25:22;;;;;;;;;11.50;11.00;;;;;;;;117834;1191;24973;-59
2023/02/16 14:28:00;;;;;;;;;14.50;11.50;;;;;;;;117889;1182;25661;-59
2023/02/16 14:30:49;;;;;;;;;11.33;11.33;;;;;;;;117899;1186;25653;-58
2023/02/16 14:33:40;;;;;;;;;11.00;9.00;;;;;;;;117833;1181;26347;-59
2023/02/16 14:36:28;;;;;;;;;16.00;13.00;;;;;;;;117795;1179;25532;-59
2023/02/16 14:38:57;;;;;;;;;14.67;12.00;;;;;;;;117942;1190;25313;-59
2023/02/16 14:41:31;;;;;;;;;14.33;10.67;;;;;;;;118112;1176;25587;-59
2023/02/16 14:44:05;;;;;;;;;13.67;11.33;;;;;;;;118106;1176;24990;-59
2023/02/16 14:46:42;;;;;;;;;14.67;12.00;;;;;;;;118080;1177;25438;-59
2023/02/16 14:50:02;;;;;;;;;13.00;10.50;;;;;;;;118052;1177;25509;-59
2023/02/16 14:52:50;;;;;;;;;10.00;9.33;;;;;;;;117869;1182;24766;-58
2023/02/16 14:55:27;;;;;;;;;12.50;11.00;;;;;;;;118100;1190;25176;-59
2023/02/16 14:58:02;;;;;;;;;13.75;12.50;;;;;;;;117880;1190;25079;-58
2023/02/16 15:00:44;;;;;;;;;12.50;11.50;;;;;;;;118105;1177;25586;-58
2023/02/16 15:03:16;;;;;;;;;17.00;12.67;;;;;;;;118108;1178;25436;-58
2023/02/16 15:05:58;;;;;;;;;9.50;9.00;;;;;;;;117973;1183;25604;-59
2023/02/16 15:08:39;;;;;;;;;16.50;13.50;;;;;;;;117923;1180;26270;-59
2023/02/16 15:11:10;;;;;;;;;16.75;12.50;;;;;;;;118078;1177;24803;-59
2023/02/16 15:13:39;;;;;;;;;14.33;12.00;;;;;;;;118140;1177;25626;-58
2023/02/16 15:16:12;;;;;;;;;15.75;12.75;;;;;;;;118103;1177;24899;-59
2023/02/16 15:18:46;;;;;;;;;14.00;12.50;;;;;;;;118067;1177;25598;-60
2023/02/16 15:21:21;;;;;;;;;14.00;11.33;;;;;;;;118042;1176;24896;-60
2023/02/16 15:23:52;;;;;;;;;20.00;13.50;;;;;;;;117915;1180;25610;-59
2023/02/16 15:26:23;;;;;;;;;17.67;14.00;;;;;;;;118126;1177;25103;-59
2023/02/16 15:29:17;;;;;;;;;10.50;9.00;;;;;;;;117888;1177;25517;-59
2023/02/16 15:31:46;;;;;;;;;15.00;13.33;;;;;;;;117939;1178;25682;-59
2023/02/16 15:34:32;;;;;;;;;13.00;13.00;;;;;;;;118058;1190;25613;-59
2023/02/16 15:37:01;;;;;;;;;17.00;13.25;;;;;;;;117879;1179;25155;-59
2023/02/16 15:39:34;;;;;;;;;17.00;13.33;;;;;;;;118133;1176;25077;-59
2023/02/16 15:42:22;;;;;;;;;14.00;12.00;;;;;;;;117865;1177;24850;-59
2023/02/16 15:44:50;;;;;;;;;14.00;13.33;;;;;;;;117879;1177;25177;-59
2023/02/16 15:47:24;;;;;;;;;14.67;12.00;;;;;;;;117829;1179;25560;-58